Language selection

My Weather Profile Weather Topics  | 

Johnstone Strait: Past 24 Hour Conditions

 

Georgia Strait - 46303

09:00 AM PDT 24 October 2021Buoy position: 49.03N 123.43W
Disclaimer

This table is a summary of hourly weather conditions for the past 24 hours.
Please note that these observations might not always be representative of weather conditions over their associated marine area.

Date / Time
(PDT)
Wind(knots) Wave height(m) Wave period(s) Pressure(kPa) Air tempC) Water tempC)
24 October 2021
9:00 NE 19 gust 22 0.9 3.5 98.2 11 11
8:00 NNE 21 gust 24 0.8 3.4 98.4 11 11
7:00 NNE 21 gust 24 0.8 3.2 98.6 12 11
6:00 NE 20 gust 25 0.8 3.3 98.9 11 11
5:00 NE 17 gust 21 0.8 3.2 99.0 11 11
4:00 NE 21 gust 25 0.6 3.0 99.2 11 10
3:00 ENE 13 gust 17 0.6 2.9 99.5 11 10
2:00 NNE 16 gust 19 0.4 2.6 99.5 10 11
1:00 NNE 16 gust 19 0.4 2.7 99.7 11 11
0:00 NE 13 gust 15 0.4 2.5 99.9 11 11
23 October 2021
23:00 NNE 16 gust 18 0.3 2.6 99.9 10 11
22:00 NNE 15 gust 17 0.4 2.8 100.0 11 11
21:00 NE 11 gust 13 0.5 2.8 100.1 11 11
20:00 NE 12 gust 14 0.4 3.1 100.2 11 11
19:00 NE 11 gust 13 0.4 3.2 100.2 11 11
18:00 NE 11 gust 13 N/A N/A 100.2 11 11
17:00 NNE 13 gust 15 0.5 3.2 100.2 11 11
16:00 NE 12 gust 15 0.6 3.1 100.3 11 11
15:00 NE 14 gust 17 0.5 3.0 100.3 11 11
14:00 NE 14 gust 17 0.5 3.1 100.3 11 11
13:00 NNE 13 gust 16 0.6 3.4 100.3 11 11
12:00 NNE 14 gust 16 0.7 3.4 100.3 10 11
11:00 NE 16 gust 19 0.8 3.5 100.3 11 11
10:00 NE 18 gust 22 0.8 3.4 100.3 11 11
9:00 NE 19 gust 23 0.7 3.2 100.3 11 11

Zoom-in to make a selection

Map of Pacific - South Coast marine weather areas South Nomad - 46036 Sentry Shoal - 46131 South Brooks - 46132 Halibut Bank - 46146 South Moresby - 46147 South Hecate Strait - 46185 West Sea Otter - 46204 La Perouse Bank - 46206 East Dellwood - 46207 Georgia Strait - 46303 English Bay - 46304 Discovery Island Esquimalt Harbour Kelp Reefs Malahat Race Rocks Lightstation Saturna Island Sheringham Point University of Victoria Victoria Gonzales Victoria Int'l Airport Ballenas Islands Campbell River Airport Comox Airport Entrance Island Fanny Island Nanaimo Airport Port Hardy Airport Sisters Islets Estevan Point Port Alberni Sartine Island Solander Island Tofino Airport Grief Point Howe Sound - Pam Rocks Powell River Airport Sechelt Squamish Airport Cape St.James Bella Bella Airport Bella Coola Airport Cathedral Point Herbert Island Point Atkinson Sand Heads Lightstation Tsawwassen Ferry Terminal Vancouver Int'l Airport Vancouver Harbour West Vancouver
Legend:
buoy Buoy
land station Land Station

Pacific - South Coast Area

Another Region

What we are doing

Date modified: